createdAt,value
2018-05-06T00:00:00.613Z,45.45
2018-05-06T00:01:00.622Z,45.81
2018-05-06T00:02:00.639Z,45.81
2018-05-06T00:03:00.660Z,45.74
2018-05-06T00:04:00.674Z,46.10
2018-05-06T00:06:00.911Z,45.91
2018-05-06T00:07:00.750Z,45.81
2018-05-06T00:08:00.741Z,46.77
2018-05-06T00:09:00.818Z,46.67
2018-05-06T00:10:00.773Z,45.91
2018-05-06T00:11:00.793Z,46.31
2018-05-06T00:12:00.809Z,46.01
2018-05-06T00:13:01.463Z,46.30
2018-05-06T00:14:00.842Z,46.80
2018-05-06T00:15:00.859Z,46.61
2018-05-06T00:16:00.880Z,46.41
2018-05-06T00:17:00.893Z,46.03
2018-05-06T00:18:00.909Z,46.61
2018-05-06T00:19:00.935Z,45.91
2018-05-06T00:20:00.945Z,47.34
2018-05-06T00:21:00.960Z,46.10
2018-05-06T00:22:00.978Z,46.67
2018-05-06T00:23:00.996Z,47.25
2018-05-06T00:24:01.013Z,46.87
2018-05-06T00:25:01.030Z,46.77
2018-05-06T00:26:01.044Z,47.37
2018-05-06T00:27:01.061Z,47.34
2018-05-06T00:28:01.083Z,46.77
2018-05-06T00:29:01.107Z,46.87
2018-05-06T00:30:01.113Z,46.77
2018-05-06T00:31:01.130Z,47.92
2018-05-06T00:32:01.152Z,47.82
2018-05-06T00:33:01.165Z,47.63
2018-05-06T00:34:01.182Z,47.63
2018-05-06T00:35:01.198Z,47.44
2018-05-06T00:36:01.215Z,47.53
2018-05-06T00:37:01.232Z,46.87
2018-05-06T00:38:01.249Z,46.96
2018-05-06T00:39:01.402Z,46.39
2018-05-06T00:40:01.551Z,47.44
2018-05-06T00:41:01.765Z,46.58
2018-05-06T00:42:01.321Z,47.82
2018-05-06T00:43:01.338Z,48.02
2018-05-06T00:44:01.350Z,48.49
2018-05-06T00:45:01.395Z,47.25
2018-05-06T00:46:01.386Z,47.53
2018-05-06T00:47:01.402Z,48.02
2018-05-06T00:48:01.436Z,47.73
2018-05-06T00:49:01.434Z,48.78
2018-05-06T00:50:01.451Z,48.66
2018-05-06T00:51:01.467Z,47.42
2018-05-06T00:52:01.485Z,47.82
2018-05-06T00:53:01.504Z,48.02
2018-05-06T00:54:01.522Z,49.04
2018-05-06T00:55:01.533Z,48.47
2018-05-06T00:56:01.549Z,48.47
2018-05-06T00:57:01.568Z,47.99
2018-05-06T00:58:01.584Z,47.89
2018-05-06T00:59:01.607Z,48.66
2018-05-06T01:00:01.618Z,48.57
2018-05-06T01:01:01.635Z,48.85
2018-05-06T01:02:01.651Z,48.75
2018-05-06T01:03:01.701Z,48.57
2018-05-06T01:04:01.718Z,48.85
2018-05-06T01:05:01.708Z,48.18
2018-05-06T01:06:01.719Z,48.47
2018-05-06T01:07:01.755Z,48.66
2018-05-06T01:08:01.765Z,49.33
2018-05-06T01:09:01.795Z,48.95
2018-05-06T01:10:01.791Z,49.62
2018-05-06T01:11:01.806Z,49.14
2018-05-06T01:12:01.822Z,49.23
2018-05-06T01:13:01.838Z,48.57
2018-05-06T01:14:01.852Z,48.57
2018-05-06T01:15:01.878Z,49.52
2018-05-06T01:16:01.886Z,49.43
2018-05-06T01:17:01.904Z,49.14
2018-05-06T01:18:01.923Z,49.62
2018-05-06T01:19:01.939Z,49.90
2018-05-06T01:20:01.954Z,49.90
2018-05-06T01:21:01.972Z,49.33
2018-05-06T01:22:01.987Z,49.04
2018-05-06T01:23:02.006Z,49.43
2018-05-06T01:24:02.025Z,49.23
2018-05-06T01:25:02.044Z,49.43
2018-05-06T01:26:02.054Z,49.33
2018-05-06T01:27:02.071Z,49.30
2018-05-06T01:28:02.091Z,49.49
2018-05-06T01:29:02.108Z,50.07
2018-05-06T01:30:02.125Z,49.98
2018-05-06T01:31:02.137Z,49.40
2018-05-06T01:32:02.166Z,49.49
2018-05-06T01:33:02.172Z,49.59
2018-05-06T01:34:02.189Z,50.16
2018-05-06T01:35:02.210Z,50.07
2018-05-06T01:36:02.222Z,50.07
2018-05-06T01:37:02.238Z,51.12
2018-05-06T01:38:02.259Z,50.35
2018-05-06T01:39:02.281Z,50.55
2018-05-06T01:40:02.289Z,50.07
2018-05-06T01:41:02.306Z,50.16
2018-05-06T01:42:02.327Z,50.07
2018-05-06T01:44:02.465Z,50.55
2018-05-06T01:45:03.028Z,50.93
2018-05-06T01:46:03.097Z,49.88
2018-05-06T01:47:02.404Z,49.88
2018-05-06T01:48:02.423Z,50.93
2018-05-06T01:49:02.443Z,50.64
2018-05-06T01:50:02.455Z,50.26
2018-05-06T01:51:02.469Z,50.14
2018-05-06T01:52:02.485Z,50.04
2018-05-06T01:53:02.505Z,50.16
2018-05-06T01:54:02.521Z,50.74
2018-05-06T01:55:02.539Z,51.60
2018-05-06T01:56:02.559Z,50.26
2018-05-06T01:57:02.578Z,49.98
2018-05-06T01:58:02.595Z,51.03
2018-05-06T01:59:02.604Z,50.55
2018-05-06T02:00:02.621Z,50.35
2018-05-06T02:01:02.639Z,49.78
2018-05-06T02:02:02.658Z,49.98
2018-05-06T02:03:02.669Z,49.88
2018-05-06T02:04:02.685Z,50.07
2018-05-06T02:05:02.706Z,49.69
2018-05-06T02:06:02.720Z,49.49
2018-05-06T02:07:02.832Z,49.18
2018-05-06T02:08:02.748Z,50.45
2018-05-06T02:09:02.767Z,49.98
2018-05-06T02:10:02.779Z,50.35
2018-05-06T02:11:02.814Z,50.35
2018-05-06T02:12:02.814Z,49.40
2018-05-06T02:13:02.831Z,49.40
2018-05-06T02:14:02.852Z,49.40
2018-05-06T02:15:02.863Z,48.93
2018-05-06T02:16:02.880Z,49.21
2018-05-06T02:17:02.897Z,48.83
2018-05-06T02:18:02.913Z,48.35
2018-05-06T02:19:03.389Z,49.49
2018-05-06T02:21:03.345Z,49.69
2018-05-06T02:22:02.980Z,50.16
2018-05-06T02:23:02.996Z,49.59
2018-05-06T02:24:03.016Z,49.38
2018-05-06T02:25:03.028Z,50.35
2018-05-06T02:26:03.043Z,49.18
2018-05-06T02:27:03.061Z,49.95
2018-05-06T02:28:03.079Z,49.38
2018-05-06T02:29:03.094Z,49.57
2018-05-06T02:30:03.118Z,49.85
2018-05-06T02:31:03.130Z,50.33
2018-05-06T02:32:03.145Z,49.66
2018-05-06T02:33:03.173Z,49.66
2018-05-06T02:34:03.177Z,49.47
2018-05-06T02:35:03.194Z,49.76
2018-05-06T02:36:03.209Z,49.66
2018-05-06T02:37:03.227Z,49.95
2018-05-06T02:38:03.246Z,50.04
2018-05-06T02:39:03.259Z,49.95
2018-05-06T02:40:03.276Z,49.95
2018-05-06T02:41:03.293Z,49.95
2018-05-06T02:42:03.307Z,50.14
2018-05-06T02:43:03.325Z,50.14
2018-05-06T02:44:03.341Z,50.43
2018-05-06T02:45:03.357Z,50.90
2018-05-06T02:46:03.374Z,51.38
2018-05-06T02:47:03.393Z,50.90
2018-05-06T02:48:03.407Z,50.90
2018-05-06T02:49:03.429Z,51.38
2018-05-06T02:50:03.452Z,52.24
2018-05-06T02:51:03.455Z,52.24
2018-05-06T02:52:03.471Z,51.95
2018-05-06T02:53:03.627Z,51.95
2018-05-06T02:54:03.646Z,50.90
2018-05-06T02:55:03.723Z,52.05
2018-05-06T02:56:03.537Z,52.05
2018-05-06T02:57:03.555Z,51.57
2018-05-06T02:58:03.571Z,51.38
2018-05-06T02:59:03.591Z,50.81
2018-05-06T03:00:03.603Z,51.67
2018-05-06T03:01:03.632Z,51.86
2018-05-06T03:02:03.640Z,52.24
2018-05-06T03:03:03.654Z,50.88
2018-05-06T03:04:03.668Z,52.31
2018-05-06T03:05:03.684Z,52.79
2018-05-06T03:06:03.701Z,53.74
2018-05-06T03:07:03.716Z,52.22
2018-05-06T03:08:03.733Z,52.40
2018-05-06T03:09:03.749Z,52.50
2018-05-06T03:10:03.765Z,52.50
2018-05-06T03:11:03.781Z,53.08
2018-05-06T03:12:03.798Z,52.12
2018-05-06T03:13:03.919Z,53.08
2018-05-06T03:14:03.842Z,53.84
2018-05-06T03:15:03.855Z,52.50
2018-05-06T03:16:03.872Z,52.88
2018-05-06T03:17:03.880Z,52.50
2018-05-06T03:18:03.897Z,52.12
2018-05-06T03:19:03.911Z,51.83
2018-05-06T03:20:03.928Z,52.03
2018-05-06T03:21:03.949Z,52.31
2018-05-06T03:22:03.958Z,52.12
2018-05-06T03:23:03.975Z,52.22
2018-05-06T03:24:03.990Z,52.59
2018-05-06T03:25:04.008Z,52.12
2018-05-06T03:26:04.023Z,51.45
2018-05-06T03:27:04.038Z,51.93
2018-05-06T03:28:04.064Z,51.45
2018-05-06T03:29:04.072Z,51.54
2018-05-06T03:30:04.299Z,52.31
2018-05-06T03:31:04.640Z,51.83
2018-05-06T03:32:04.510Z,51.64
2018-05-06T03:33:04.141Z,51.64
2018-05-06T03:34:04.152Z,51.45
2018-05-06T03:35:04.169Z,52.03
2018-05-06T03:36:04.185Z,51.83
2018-05-06T03:37:04.205Z,51.64
2018-05-06T03:38:04.216Z,52.88
2018-05-06T03:39:04.237Z,51.93
2018-05-06T03:40:04.252Z,52.22
2018-05-06T03:41:04.267Z,52.40
2018-05-06T03:42:04.282Z,52.79
2018-05-06T03:43:04.298Z,52.50
2018-05-06T03:44:04.315Z,52.22
2018-05-06T03:45:04.337Z,52.98
2018-05-06T03:46:04.346Z,51.83
2018-05-06T03:47:04.364Z,52.67
2018-05-06T03:48:04.381Z,52.03
2018-05-06T03:49:04.396Z,52.22
2018-05-06T03:50:04.413Z,52.50
2018-05-06T03:51:04.432Z,52.12
2018-05-06T03:52:04.444Z,53.08
2018-05-06T03:53:04.461Z,53.27
2018-05-06T03:54:04.477Z,52.48
2018-05-06T03:55:04.495Z,52.38
2018-05-06T03:56:04.510Z,52.28
2018-05-06T03:57:04.527Z,52.57
2018-05-06T03:58:04.540Z,52.38
2018-05-06T03:59:04.558Z,52.09
2018-05-06T04:00:04.574Z,53.33
2018-05-06T04:01:04.690Z,52.95
2018-05-06T04:02:04.607Z,52.86
2018-05-06T04:03:04.813Z,52.67
2018-05-06T04:04:04.792Z,52.95
2018-05-06T04:05:04.657Z,52.86
2018-05-06T04:06:04.670Z,52.86
2018-05-06T04:07:04.687Z,53.62
2018-05-06T04:08:04.705Z,52.95
2018-05-06T04:09:04.724Z,52.57
2018-05-06T04:10:04.745Z,52.28
2018-05-06T04:11:04.749Z,52.19
2018-05-06T04:12:04.771Z,52.28
2018-05-06T04:13:04.784Z,52.38
2018-05-06T04:14:04.799Z,52.48
2018-05-06T04:15:04.814Z,52.48
2018-05-06T04:16:04.830Z,52.57
2018-05-06T04:17:04.854Z,52.28
2018-05-06T04:18:04.866Z,52.28
2018-05-06T04:19:04.907Z,52.09
2018-05-06T04:20:04.897Z,52.28
2018-05-06T04:21:04.911Z,51.90
2018-05-06T04:22:04.943Z,51.90
2018-05-06T04:23:04.943Z,52.38
2018-05-06T04:24:04.959Z,52.28
2018-05-06T04:25:04.977Z,51.74
2018-05-06T04:26:04.997Z,52.09
2018-05-06T04:27:05.014Z,52.59
2018-05-06T04:28:05.026Z,52.22
2018-05-06T04:29:05.054Z,52.31
2018-05-06T04:30:05.057Z,52.98
2018-05-06T04:31:05.075Z,52.50
2018-05-06T04:32:05.088Z,52.03
2018-05-06T04:33:05.106Z,52.03
2018-05-06T04:34:05.123Z,51.93
2018-05-06T04:35:05.147Z,52.50
2018-05-06T04:36:05.215Z,51.74
2018-05-06T04:37:05.297Z,51.35
2018-05-06T04:38:05.796Z,50.90
2018-05-06T04:39:05.197Z,50.43
2018-05-06T04:40:05.215Z,50.49
2018-05-06T04:41:05.233Z,50.88
2018-05-06T04:42:05.246Z,50.98
2018-05-06T04:43:05.263Z,51.07
2018-05-06T04:44:05.280Z,51.35
2018-05-06T04:45:05.295Z,51.93
2018-05-06T04:46:05.327Z,51.93
2018-05-06T04:47:05.328Z,52.31
2018-05-06T04:48:05.349Z,51.93
2018-05-06T04:49:05.394Z,52.22
2018-05-06T04:50:05.424Z,51.17
2018-05-06T04:51:05.393Z,51.35
2018-05-06T04:52:05.408Z,51.26
2018-05-06T04:53:05.424Z,51.93
2018-05-06T04:54:05.439Z,51.35
2018-05-06T04:55:05.459Z,51.93
2018-05-06T04:56:05.473Z,52.50
2018-05-06T04:57:05.499Z,52.31
2018-05-06T04:58:05.514Z,52.03
2018-05-06T04:59:05.534Z,51.93
2018-05-06T05:00:05.539Z,50.98
2018-05-06T05:01:05.585Z,51.54
2018-05-06T05:02:05.574Z,51.45
2018-05-06T05:03:05.587Z,51.93
2018-05-06T05:04:05.605Z,51.64
2018-05-06T05:05:05.619Z,52.22
2018-05-06T05:06:05.635Z,52.15
2018-05-06T05:07:05.651Z,52.05
2018-05-06T05:08:05.668Z,51.38
2018-05-06T05:09:05.685Z,51.09
2018-05-06T05:10:05.700Z,51.95
2018-05-06T05:11:05.717Z,52.24
2018-05-06T05:12:05.743Z,51.67
2018-05-06T05:13:05.749Z,51.95
2018-05-06T05:14:05.772Z,51.48
2018-05-06T05:15:06.120Z,51.09
2018-05-06T05:16:05.947Z,51.57
2018-05-06T05:17:05.815Z,52.05
2018-05-06T05:18:05.830Z,51.57
2018-05-06T05:19:05.849Z,51.48
2018-05-06T05:20:05.863Z,51.57
2018-05-06T05:21:05.879Z,51.67
2018-05-06T05:22:05.895Z,51.86
2018-05-06T05:23:05.912Z,51.95
2018-05-06T05:24:05.928Z,51.95
2018-05-06T05:25:05.944Z,52.34
2018-05-06T05:26:05.966Z,51.38
2018-05-06T05:27:05.977Z,52.34
2018-05-06T05:28:05.994Z,51.95
2018-05-06T05:29:06.016Z,51.38
2018-05-06T05:30:06.038Z,51.38
2018-05-06T05:31:06.044Z,51.48
2018-05-06T05:32:06.056Z,51.48
2018-05-06T05:33:06.073Z,52.05
2018-05-06T05:34:06.089Z,52.62
2018-05-06T05:35:06.105Z,52.26
2018-05-06T05:36:06.331Z,51.21
2018-05-06T05:37:06.138Z,51.98
2018-05-06T05:38:06.164Z,51.70
2018-05-06T05:39:06.173Z,50.38
2018-05-06T05:40:06.196Z,49.33
2018-05-06T05:41:06.201Z,48.30
2018-05-06T05:42:06.225Z,47.37
2018-05-06T05:43:06.234Z,46.89
2018-05-06T05:44:06.252Z,46.41
2018-05-06T05:45:06.279Z,46.70
2018-05-06T05:46:06.292Z,47.47
2018-05-06T05:47:06.301Z,48.39
2018-05-06T05:49:06.340Z,48.59
2018-05-06T05:50:06.361Z,49.43
2018-05-06T05:51:06.370Z,49.43
2018-05-06T05:52:06.386Z,49.33
2018-05-06T05:53:06.405Z,50.76
2018-05-06T05:54:06.414Z,50.95
2018-05-06T05:55:06.437Z,51.17
2018-05-06T05:56:06.496Z,50.00
2018-05-06T05:57:06.469Z,50.09
2018-05-06T05:58:06.481Z,50.38
2018-05-06T05:59:06.501Z,50.09
2018-05-06T06:00:06.523Z,50.29
2018-05-06T06:01:06.534Z,50.38
2018-05-06T06:02:06.562Z,50.29
2018-05-06T06:03:06.565Z,50.19
2018-05-06T06:04:06.583Z,50.57
2018-05-06T06:05:06.597Z,51.15
2018-05-06T06:06:06.616Z,52.39
2018-05-06T06:07:06.629Z,50.79
2018-05-06T06:08:06.645Z,50.38
2018-05-06T06:09:06.669Z,50.86
2018-05-06T06:10:06.678Z,51.07
2018-05-06T06:11:06.696Z,50.38
2018-05-06T06:12:06.718Z,50.21
2018-05-06T06:13:06.728Z,50.29
2018-05-06T06:14:06.745Z,50.41
2018-05-06T06:15:06.762Z,51.17
2018-05-06T06:16:06.787Z,51.17
2018-05-06T06:17:06.795Z,50.31
2018-05-06T06:18:06.811Z,49.93
2018-05-06T06:20:06.849Z,50.50
2018-05-06T06:21:06.868Z,50.21
2018-05-06T06:22:06.877Z,51.07
2018-05-06T06:23:06.894Z,51.07
2018-05-06T06:24:06.910Z,50.21
2018-05-06T06:25:06.934Z,49.93
2018-05-06T06:26:06.944Z,49.93
2018-05-06T06:27:06.964Z,49.64
2018-05-06T06:28:06.977Z,50.50
2018-05-06T06:29:06.995Z,50.24
2018-05-06T06:30:07.011Z,49.95
2018-05-06T06:31:07.032Z,49.95
2018-05-06T06:32:07.049Z,50.05
2018-05-06T06:33:07.062Z,49.95
2018-05-06T06:34:07.077Z,49.57
2018-05-06T06:35:07.094Z,50.15
2018-05-06T06:36:07.115Z,49.95
2018-05-06T06:37:07.127Z,49.76
2018-05-06T06:38:07.143Z,49.48
2018-05-06T06:39:07.161Z,49.57
2018-05-06T06:40:07.182Z,49.95
2018-05-06T06:41:07.194Z,50.24
2018-05-06T06:42:07.212Z,50.43
2018-05-06T06:43:07.227Z,50.15
2018-05-06T06:44:07.247Z,49.95
2018-05-06T06:45:07.261Z,50.24
2018-05-06T06:46:07.277Z,50.24
2018-05-06T06:47:07.295Z,50.05
2018-05-06T06:48:07.403Z,49.76
2018-05-06T06:49:07.328Z,49.50
2018-05-06T06:50:07.343Z,49.31
2018-05-06T06:51:07.357Z,48.83
2018-05-06T06:52:07.376Z,49.69
2018-05-06T06:53:07.398Z,49.60
2018-05-06T06:54:07.409Z,49.50
2018-05-06T06:55:07.427Z,48.93
2018-05-06T06:56:07.449Z,49.50
2018-05-06T06:57:07.461Z,48.93
2018-05-06T06:58:07.766Z,49.11
2018-05-06T06:59:07.505Z,48.93
2018-05-06T07:00:07.513Z,49.33
2018-05-06T07:01:07.526Z,48.54
2018-05-06T07:02:07.554Z,48.95
2018-05-06T07:03:07.568Z,48.57
2018-05-06T07:04:07.581Z,48.57
2018-05-06T07:05:07.597Z,48.47
2018-05-06T07:06:07.624Z,48.38
2018-05-06T07:07:07.628Z,48.57
2018-05-06T07:08:07.649Z,48.47
2018-05-06T07:09:07.664Z,48.66
2018-05-06T07:10:07.675Z,47.80
2018-05-06T07:11:07.696Z,47.32
2018-05-06T07:12:07.810Z,47.51
2018-05-06T07:13:07.726Z,47.80
2018-05-06T07:14:07.757Z,48.09
2018-05-06T07:15:07.760Z,48.09
2018-05-06T07:16:07.780Z,47.82
2018-05-06T07:17:07.797Z,48.11
2018-05-06T07:18:07.809Z,46.75
2018-05-06T07:19:07.827Z,47.42
2018-05-06T07:20:07.852Z,47.42
2018-05-06T07:21:07.861Z,46.96
2018-05-06T07:22:07.887Z,46.96
2018-05-06T07:23:07.896Z,47.06
2018-05-06T07:24:07.912Z,46.96
2018-05-06T07:25:07.933Z,46.86
2018-05-06T07:26:07.946Z,46.96
2018-05-06T07:27:07.980Z,46.77
2018-05-06T07:28:07.980Z,46.86
2018-05-06T07:29:07.999Z,46.96
2018-05-06T07:30:08.025Z,46.77
2018-05-06T07:31:08.031Z,46.48
2018-05-06T07:32:08.058Z,46.58
2018-05-06T07:33:08.074Z,46.67
2018-05-06T07:34:08.079Z,46.67
2018-05-06T07:35:08.102Z,46.86
2018-05-06T07:36:08.121Z,46.48
2018-05-06T07:37:08.133Z,46.67
2018-05-06T07:38:08.155Z,46.98
2018-05-06T07:39:08.176Z,46.70
2018-05-06T07:40:08.181Z,46.22
2018-05-06T07:41:08.204Z,46.50
2018-05-06T07:42:08.217Z,46.12
2018-05-06T07:43:08.235Z,46.22
2018-05-06T07:44:08.252Z,46.12
2018-05-06T07:45:08.284Z,45.74
2018-05-06T07:46:08.587Z,45.83
2018-05-06T07:47:08.303Z,44.80
2018-05-06T07:48:08.319Z,44.70
2018-05-06T07:49:08.431Z,45.18
2018-05-06T07:50:08.351Z,45.57
2018-05-06T07:51:08.376Z,45.47
2018-05-06T07:52:08.386Z,45.57
2018-05-06T07:53:08.403Z,45.67
2018-05-06T07:54:08.434Z,45.18
2018-05-06T07:55:08.443Z,44.70
2018-05-06T07:56:08.460Z,44.51
2018-05-06T07:57:08.482Z,44.90
2018-05-06T07:58:08.491Z,44.90
2018-05-06T07:59:08.506Z,44.32
2018-05-06T08:00:08.527Z,44.80
2018-05-06T08:01:08.541Z,44.80
2018-05-06T08:02:08.560Z,44.90
2018-05-06T08:03:08.576Z,45.00
2018-05-06T08:04:08.683Z,44.51
2018-05-06T08:06:08.633Z,44.63
2018-05-06T08:07:08.848Z,44.82
2018-05-06T08:08:08.678Z,44.54
2018-05-06T08:09:08.681Z,44.54
2018-05-06T08:10:08.699Z,44.34
2018-05-06T08:11:08.712Z,44.06
2018-05-06T08:12:08.737Z,44.06
2018-05-06T08:13:08.750Z,44.34
2018-05-06T08:14:08.767Z,43.96
2018-05-06T08:15:08.782Z,43.70
2018-05-06T08:16:08.801Z,43.57
2018-05-06T08:17:08.816Z,43.31
2018-05-06T08:18:08.838Z,43.02
2018-05-06T08:19:08.851Z,43.02
2018-05-06T08:20:08.869Z,43.21
2018-05-06T08:21:08.888Z,44.37
2018-05-06T08:22:08.906Z,43.50
2018-05-06T08:23:08.975Z,43.31
2018-05-06T08:24:08.938Z,43.31
2018-05-06T08:25:08.952Z,43.21
2018-05-06T08:26:08.969Z,42.83
2018-05-06T08:27:08.995Z,43.04
2018-05-06T08:28:09.005Z,42.85
2018-05-06T08:29:09.022Z,43.43
2018-05-06T08:30:09.038Z,42.85
2018-05-06T08:31:09.105Z,43.33
2018-05-06T08:32:09.075Z,43.04
2018-05-06T08:33:09.093Z,43.33
2018-05-06T08:34:09.112Z,42.56
2018-05-06T08:35:09.133Z,41.99
2018-05-06T08:36:09.145Z,41.70
2018-05-06T08:37:09.165Z,41.89
2018-05-06T08:38:09.199Z,41.99
2018-05-06T08:39:09.210Z,41.79
2018-05-06T08:40:09.214Z,41.70
2018-05-06T08:41:09.232Z,42.27
2018-05-06T08:42:09.251Z,42.18
2018-05-06T08:43:09.280Z,42.47
2018-05-06T08:44:09.283Z,42.49
2018-05-06T08:45:09.304Z,42.39
2018-05-06T08:46:09.319Z,42.58
2018-05-06T08:47:09.346Z,41.72
2018-05-06T08:48:09.355Z,40.85
2018-05-06T08:49:09.375Z,40.95
2018-05-06T08:50:09.397Z,41.14
2018-05-06T08:51:09.410Z,40.85
2018-05-06T08:52:09.426Z,40.95
2018-05-06T08:53:09.474Z,40.85
2018-05-06T08:54:09.462Z,40.85
2018-05-06T08:55:09.484Z,40.47
2018-05-06T08:56:09.504Z,40.66
2018-05-06T08:57:09.520Z,40.88
2018-05-06T08:58:09.541Z,41.16
2018-05-06T08:59:09.549Z,41.64
2018-05-06T09:00:09.569Z,40.88
2018-05-06T09:01:09.586Z,40.58
2018-05-06T09:03:09.620Z,40.20
2018-05-06T09:04:09.642Z,40.11
2018-05-06T09:05:09.656Z,40.68
2018-05-06T09:06:09.684Z,40.39
2018-05-06T09:07:09.695Z,40.30
2018-05-06T09:08:09.713Z,40.70
2018-05-06T09:09:09.727Z,39.93
2018-05-06T09:10:09.756Z,40.22
2018-05-06T09:11:09.797Z,40.12
2018-05-06T09:12:09.959Z,40.41
2018-05-06T09:13:09.933Z,40.12
2018-05-06T09:14:09.818Z,39.64
2018-05-06T09:15:09.845Z,38.97
2018-05-06T09:16:09.874Z,38.97
2018-05-06T09:17:09.873Z,38.79
2018-05-06T09:18:09.889Z,39.36
2018-05-06T09:19:09.907Z,39.36
2018-05-06T09:20:09.925Z,39.45
2018-05-06T09:21:09.947Z,39.93
2018-05-06T09:22:09.978Z,40.03
2018-05-06T09:23:09.981Z,39.54
2018-05-06T09:24:09.999Z,39.56
2018-05-06T09:25:10.016Z,39.37
2018-05-06T09:26:10.035Z,39.47
2018-05-06T09:27:10.054Z,38.99
2018-05-06T09:28:10.067Z,39.76
2018-05-06T09:29:10.086Z,39.66
2018-05-06T09:30:10.103Z,38.79
2018-05-06T09:31:10.122Z,38.41
2018-05-06T09:32:10.139Z,37.85
2018-05-06T09:33:10.156Z,37.66
2018-05-06T09:34:10.174Z,37.76
2018-05-06T09:35:10.193Z,38.04
2018-05-06T09:36:10.215Z,37.76
2018-05-06T09:37:10.230Z,38.04
2018-05-06T09:38:10.251Z,38.33
2018-05-06T09:39:10.273Z,38.04
2018-05-06T09:40:10.283Z,38.14
2018-05-06T09:41:10.302Z,38.24
2018-05-06T09:42:10.319Z,38.24
2018-05-06T09:43:10.340Z,37.95
2018-05-06T09:44:10.359Z,37.68
2018-05-06T09:45:10.375Z,37.19
2018-05-06T09:46:10.393Z,36.91
2018-05-06T09:47:10.412Z,37.39
2018-05-06T09:48:10.431Z,37.77
2018-05-06T09:49:10.701Z,37.39
2018-05-06T09:50:10.916Z,37.10
2018-05-06T09:51:10.527Z,36.23
2018-05-06T09:52:10.509Z,36.13
2018-05-06T09:53:10.523Z,35.75
2018-05-06T09:54:10.541Z,35.85
2018-05-06T09:55:10.558Z,36.23
2018-05-06T09:56:10.578Z,35.58
2018-05-06T09:57:10.595Z,35.19
2018-05-06T09:58:10.614Z,35.48
2018-05-06T09:59:10.644Z,35.86
2018-05-06T10:00:10.652Z,35.19
2018-05-06T10:01:10.670Z,35.28
2018-05-06T10:02:10.686Z,35.00
2018-05-06T10:03:10.705Z,35.28
2018-05-06T10:04:10.751Z,35.38
2018-05-06T10:05:10.742Z,35.67
2018-05-06T10:06:10.761Z,35.58
2018-05-06T10:07:10.788Z,35.77
2018-05-06T10:08:10.895Z,35.86
2018-05-06T10:09:10.818Z,35.86
2018-05-06T10:10:10.837Z,35.67
2018-05-06T10:11:10.855Z,35.96
2018-05-06T10:12:10.871Z,35.88
2018-05-06T10:13:10.895Z,35.50
2018-05-06T10:14:10.911Z,35.78
2018-05-06T10:15:10.930Z,35.50
2018-05-06T10:16:10.946Z,34.53
2018-05-06T10:17:10.967Z,35.11
2018-05-06T10:18:10.983Z,34.92
2018-05-06T10:19:11.007Z,35.30
2018-05-06T10:20:11.022Z,34.82
2018-05-06T10:21:11.052Z,34.82
2018-05-06T10:22:11.123Z,34.94
2018-05-06T10:23:11.093Z,35.03
2018-05-06T10:24:11.187Z,33.87
2018-05-06T10:25:11.135Z,33.97
2018-05-06T10:26:11.196Z,33.97
2018-05-06T10:27:11.155Z,33.87
2018-05-06T10:28:11.191Z,33.58
2018-05-06T10:29:11.206Z,33.78
2018-05-06T10:30:11.209Z,33.97
2018-05-06T10:31:11.229Z,33.97
2018-05-06T10:32:11.251Z,35.03
2018-05-06T10:33:11.277Z,34.84
2018-05-06T10:34:11.298Z,35.22
2018-05-06T10:35:11.305Z,34.95
2018-05-06T10:36:11.325Z,33.80
2018-05-06T10:37:11.344Z,33.80
2018-05-06T10:38:11.370Z,33.50
2018-05-06T10:39:11.403Z,33.12
2018-05-06T10:40:11.401Z,33.60
2018-05-06T10:41:11.417Z,33.60
2018-05-06T10:42:11.436Z,33.98
2018-05-06T10:43:11.460Z,33.81
2018-05-06T10:44:11.587Z,33.62
2018-05-06T10:45:11.498Z,34.39
2018-05-06T10:46:11.510Z,33.91
2018-05-06T10:47:11.631Z,33.72
2018-05-06T10:48:11.551Z,33.04
2018-05-06T10:49:11.671Z,32.75
2018-05-06T10:50:11.591Z,33.04
2018-05-06T10:51:11.609Z,32.56
2018-05-06T10:52:11.890Z,32.46
2018-05-06T10:53:11.706Z,32.17
2018-05-06T10:55:11.690Z,32.65
2018-05-06T10:56:11.708Z,32.94
2018-05-06T10:57:11.725Z,33.23
2018-05-06T10:58:11.752Z,33.23
2018-05-06T10:59:11.764Z,33.04
2018-05-06T11:00:11.784Z,33.04
2018-05-06T11:01:11.803Z,32.94
2018-05-06T11:02:11.822Z,32.84
2018-05-06T11:03:11.844Z,33.04
2018-05-06T11:04:11.858Z,32.65
2018-05-06T11:05:11.884Z,32.75
2018-05-06T11:06:11.897Z,33.81
2018-05-06T11:07:11.920Z,32.84
2018-05-06T11:08:11.946Z,32.56
2018-05-06T11:09:11.957Z,32.26
2018-05-06T11:10:12.027Z,31.49
2018-05-06T11:11:11.995Z,31.59
2018-05-06T11:12:12.018Z,32.17
2018-05-06T11:13:12.034Z,32.65
2018-05-06T11:14:12.059Z,32.36
2018-05-06T11:15:12.072Z,32.38
2018-05-06T11:16:12.094Z,32.09
2018-05-06T11:17:12.111Z,31.41
2018-05-06T11:18:12.130Z,31.12
2018-05-06T11:19:12.153Z,31.22
2018-05-06T11:20:12.171Z,31.51
2018-05-06T11:21:12.196Z,31.12
2018-05-06T11:22:12.214Z,31.22
2018-05-06T11:23:12.233Z,30.93
2018-05-06T11:24:12.249Z,31.70
2018-05-06T11:25:12.267Z,32.28
2018-05-06T11:26:12.351Z,31.70
2018-05-06T11:27:12.308Z,31.41
2018-05-06T11:29:12.376Z,31.31
2018-05-06T11:30:12.371Z,31.31
2018-05-06T11:31:12.384Z,31.51
2018-05-06T11:32:12.408Z,31.70
2018-05-06T11:33:12.423Z,31.52
2018-05-06T11:34:12.450Z,31.62
2018-05-06T11:35:12.461Z,31.71
2018-05-06T11:36:12.481Z,29.30
2018-05-06T11:37:12.502Z,30.07
2018-05-06T11:38:12.521Z,31.23
2018-05-06T11:39:12.543Z,30.36
2018-05-06T11:40:12.560Z,30.57
2018-05-06T11:41:12.584Z,30.07
2018-05-06T11:42:12.600Z,30.07
2018-05-06T11:43:12.621Z,31.23
2018-05-06T11:44:12.640Z,30.85
2018-05-06T11:45:12.661Z,30.36
2018-05-06T11:46:12.680Z,31.34
2018-05-06T11:47:12.699Z,30.66
2018-05-06T11:48:12.774Z,30.08
2018-05-06T11:49:12.745Z,30.57
2018-05-06T11:50:12.760Z,30.96
2018-05-06T11:51:12.795Z,30.96
2018-05-06T11:52:12.797Z,31.56
2018-05-06T11:53:12.824Z,31.36
2018-05-06T11:54:12.844Z,31.56
2018-05-06T11:55:12.862Z,31.36
2018-05-06T11:56:12.920Z,31.67
2018-05-06T11:57:12.894Z,31.26
2018-05-06T11:58:12.914Z,31.67
2018-05-06T11:59:12.937Z,31.57
2018-05-06T12:00:13.006Z,31.26
2018-05-06T12:01:12.987Z,31.74
2018-05-06T12:02:13.071Z,32.33
2018-05-06T12:03:13.017Z,32.62
2018-05-06T12:04:13.045Z,31.56
2018-05-06T12:05:13.056Z,31.16
2018-05-06T12:06:13.079Z,31.74
2018-05-06T12:07:13.097Z,31.36
2018-05-06T12:08:13.115Z,31.26
2018-05-06T12:09:13.135Z,31.46
2018-05-06T12:10:13.160Z,31.46
2018-05-06T12:11:13.174Z,32.52
2018-05-06T12:12:13.194Z,31.84
2018-05-06T12:13:13.215Z,32.24
2018-05-06T12:14:13.235Z,31.37
2018-05-06T12:15:13.256Z,30.60
2018-05-06T12:16:13.279Z,29.33
2018-05-06T12:17:13.296Z,30.39
2018-05-06T12:18:13.319Z,31.16
2018-05-06T12:19:13.337Z,31.36
2018-05-06T12:20:13.357Z,29.91
2018-05-06T12:21:13.383Z,30.49
2018-05-06T12:22:13.398Z,30.99
2018-05-06T12:23:13.422Z,32.24
2018-05-06T12:24:13.442Z,31.18
2018-05-06T12:25:13.463Z,30.23
2018-05-06T12:26:13.479Z,29.46
2018-05-06T12:27:13.501Z,29.63
2018-05-06T12:28:13.621Z,30.11
2018-05-06T12:29:13.542Z,29.83
2018-05-06T12:30:13.562Z,30.02
2018-05-06T12:31:13.593Z,30.41
2018-05-06T12:32:13.604Z,29.74
2018-05-06T12:33:13.627Z,29.06
2018-05-06T12:34:13.668Z,28.58
2018-05-06T12:36:13.741Z,30.73
2018-05-06T12:37:13.727Z,29.27
2018-05-06T12:38:13.729Z,28.68
2018-05-06T12:39:13.750Z,29.26
2018-05-06T12:40:13.770Z,30.04
2018-05-06T12:41:13.790Z,31.70
2018-05-06T12:42:13.812Z,29.37
2018-05-06T12:43:13.862Z,28.89
2018-05-06T12:44:13.856Z,30.07
2018-05-06T12:45:13.882Z,28.50
2018-05-06T12:46:13.894Z,29.47
2018-05-06T12:47:13.917Z,29.17
2018-05-06T12:48:13.937Z,28.59
2018-05-06T12:49:13.959Z,28.87
2018-05-06T12:50:13.979Z,30.13
2018-05-06T12:51:14.003Z,29.37
2018-05-06T12:52:14.040Z,29.85
2018-05-06T12:53:14.045Z,29.66
2018-05-06T12:54:14.066Z,29.85
2018-05-06T12:55:14.162Z,29.17
2018-05-06T12:56:14.110Z,30.16
2018-05-06T12:57:14.137Z,29.58
2018-05-06T12:58:14.153Z,29.28
2018-05-06T12:59:14.173Z,29.10
2018-05-06T13:00:14.195Z,29.77
2018-05-06T13:01:14.221Z,29.77
2018-05-06T13:02:14.259Z,29.38